sensor_id;sensor_type;location;lat;lon;timestamp;temperature;humidity
27858;DHT22;16852;51.446;6.528;2023-03-14T00:01:27;12.10;99.90
27858;DHT22;16852;51.446;6.528;2023-03-14T00:03:28;12.20;99.90
27858;DHT22;16852;51.446;6.528;2023-03-14T00:05:29;12.20;99.90
27858;DHT22;16852;51.446;6.528;2023-03-14T00:07:29;12.20;99.90
27858;DHT22;16852;51.446;6.528;2023-03-14T00:09:34;12.20;99.90
27858;DHT22;16852;51.446;6.528;2023-03-14T00:11:34;12.20;99.90
27858;DHT22;16852;51.446;6.528;2023-03-14T00:13:35;12.20;99.90
27858;DHT22;16852;51.446;6.528;2023-03-14T00:15:36;12.20;99.90
27858;DHT22;16852;51.446;6.528;2023-03-14T00:17:37;12.30;99.90
27858;DHT22;16852;51.446;6.528;2023-03-14T00:19:38;12.20;99.90
27858;DHT22;16852;51.446;6.528;2023-03-14T00:21:38;12.30;99.90
27858;DHT22;16852;51.446;6.528;2023-03-14T00:23:40;12.20;99.90
27858;DHT22;16852;51.446;6.528;2023-03-14T00:25:41;12.10;99.90
27858;DHT22;16852;51.446;6.528;2023-03-14T00:27:42;12.10;99.90
27858;DHT22;16852;51.446;6.528;2023-03-14T00:29:42;12.10;99.90
27858;DHT22;16852;51.446;6.528;2023-03-14T00:31:43;12.10;99.90
27858;DHT22;16852;51.446;6.528;2023-03-14T00:33:45;12.10;99.90
27858;DHT22;16852;51.446;6.528;2023-03-14T00:35:59;12.00;99.90
27858;DHT22;16852;51.446;6.528;2023-03-14T00:38:00;12.00;99.90
27858;DHT22;16852;51.446;6.528;2023-03-14T00:40:01;12.00;99.90
27858;DHT22;16852;51.446;6.528;2023-03-14T00:42:01;11.90;99.90
27858;DHT22;16852;51.446;6.528;2023-03-14T00:44:02;11.90;99.90
27858;DHT22;16852;51.446;6.528;2023-03-14T00:46:03;11.90;99.90
27858;DHT22;16852;51.446;6.528;2023-03-14T00:48:03;11.90;99.90
27858;DHT22;16852;51.446;6.528;2023-03-14T00:50:04;11.80;99.90
27858;DHT22;16852;51.446;6.528;2023-03-14T00:52:05;11.80;99.90
27858;DHT22;16852;51.446;6.528;2023-03-14T00:54:05;11.80;99.90
27858;DHT22;16852;51.446;6.528;2023-03-14T00:56:09;11.70;99.90
27858;DHT22;16852;51.446;6.528;2023-03-14T00:58:11;11.60;99.90
27858;DHT22;16852;51.446;6.528;2023-03-14T01:00:12;11.60;99.90
27858;DHT22;16852;51.446;6.528;2023-03-14T01:02:13;11.60;99.90
27858;DHT22;16852;51.446;6.528;2023-03-14T01:04:14;11.60;99.90
27858;DHT22;16852;51.446;6.528;2023-03-14T01:06:16;11.50;99.90
27858;DHT22;16852;51.446;6.528;2023-03-14T01:08:17;11.50;99.90
27858;DHT22;16852;51.446;6.528;2023-03-14T01:10:18;11.50;99.90
27858;DHT22;16852;51.446;6.528;2023-03-14T01:12:18;11.50;99.90
27858;DHT22;16852;51.446;6.528;2023-03-14T01:14:19;11.40;99.90
27858;DHT22;16852;51.446;6.528;2023-03-14T01:16:21;11.50;99.90
27858;DHT22;16852;51.446;6.528;2023-03-14T01:18:22;11.50;99.90
27858;DHT22;16852;51.446;6.528;2023-03-14T01:20:22;11.40;99.90
27858;DHT22;16852;51.446;6.528;2023-03-14T01:22:23;11.40;99.90
27858;DHT22;16852;51.446;6.528;2023-03-14T01:24:24;11.50;99.90
27858;DHT22;16852;51.446;6.528;2023-03-14T01:26:26;11.50;99.90
27858;DHT22;16852;51.446;6.528;2023-03-14T01:28:26;11.40;99.90
27858;DHT22;16852;51.446;6.528;2023-03-14T01:30:27;11.40;99.90
27858;DHT22;16852;51.446;6.528;2023-03-14T01:32:28;11.40;99.90
27858;DHT22;16852;51.446;6.528;2023-03-14T01:34:28;11.40;99.90
27858;DHT22;16852;51.446;6.528;2023-03-14T01:36:29;11.40;99.90
27858;DHT22;16852;51.446;6.528;2023-03-14T01:38:30;11.30;99.90
27858;DHT22;16852;51.446;6.528;2023-03-14T01:40:31;11.30;99.90
27858;DHT22;16852;51.446;6.528;2023-03-14T01:42:32;11.30;99.90
27858;DHT22;16852;51.446;6.528;2023-03-14T01:44:52;11.30;99.90
27858;DHT22;16852;51.446;6.528;2023-03-14T01:46:53;11.30;99.90
27858;DHT22;16852;51.446;6.528;2023-03-14T01:49:02;11.20;99.90
27858;DHT22;16852;51.446;6.528;2023-03-14T01:51:07;11.20;99.90
27858;DHT22;16852;51.446;6.528;2023-03-14T01:53:08;11.10;99.90
27858;DHT22;16852;51.446;6.528;2023-03-14T01:55:15;11.20;99.90
27858;DHT22;16852;51.446;6.528;2023-03-14T01:57:38;11.20;99.90
27858;DHT22;16852;51.446;6.528;2023-03-14T01:59:42;11.10;99.90
27858;DHT22;16852;51.446;6.528;2023-03-14T02:01:46;11.10;99.90
27858;DHT22;16852;51.446;6.528;2023-03-14T02:03:52;11.10;99.90
27858;DHT22;16852;51.446;6.528;2023-03-14T02:05:56;11.10;99.90
27858;DHT22;16852;51.446;6.528;2023-03-14T02:08:00;11.10;99.90
27858;DHT22;16852;51.446;6.528;2023-03-14T02:10:02;11.10;99.90
27858;DHT22;16852;51.446;6.528;2023-03-14T02:12:03;11.10;99.90
27858;DHT22;16852;51.446;6.528;2023-03-14T02:14:05;11.10;99.90
27858;DHT22;16852;51.446;6.528;2023-03-14T02:16:06;11.10;99.90
27858;DHT22;16852;51.446;6.528;2023-03-14T02:18:07;11.10;99.90
27858;DHT22;16852;51.446;6.528;2023-03-14T02:22:27;11.10;99.90
27858;DHT22;16852;51.446;6.528;2023-03-14T02:27:09;11.10;99.90
27858;DHT22;16852;51.446;6.528;2023-03-14T02:29:10;11.10;99.90
27858;DHT22;16852;51.446;6.528;2023-03-14T02:31:11;11.10;99.90
27858;DHT22;16852;51.446;6.528;2023-03-14T02:33:20;11.10;99.90
27858;DHT22;16852;51.446;6.528;2023-03-14T02:35:23;11.10;99.90
27858;DHT22;16852;51.446;6.528;2023-03-14T02:37:41;11.10;99.90
27858;DHT22;16852;51.446;6.528;2023-03-14T02:39:44;11.10;99.90
27858;DHT22;16852;51.446;6.528;2023-03-14T02:41:45;11.00;99.90
27858;DHT22;16852;51.446;6.528;2023-03-14T02:43:46;11.10;99.90
27858;DHT22;16852;51.446;6.528;2023-03-14T02:45:48;11.10;99.90
27858;DHT22;16852;51.446;6.528;2023-03-14T02:47:54;11.00;99.90
27858;DHT22;16852;51.446;6.528;2023-03-14T02:50:00;11.00;99.90
27858;DHT22;16852;51.446;6.528;2023-03-14T02:52:02;11.00;99.90
27858;DHT22;16852;51.446;6.528;2023-03-14T02:54:03;11.00;99.90
27858;DHT22;16852;51.446;6.528;2023-03-14T02:56:04;11.00;99.90
27858;DHT22;16852;51.446;6.528;2023-03-14T02:58:05;11.00;99.90
27858;DHT22;16852;51.446;6.528;2023-03-14T03:00:06;11.00;99.90
27858;DHT22;16852;51.446;6.528;2023-03-14T03:02:08;11.00;99.90
27858;DHT22;16852;51.446;6.528;2023-03-14T03:04:08;11.00;99.90
27858;DHT22;16852;51.446;6.528;2023-03-14T03:06:09;11.00;99.90
27858;DHT22;16852;51.446;6.528;2023-03-14T03:08:10;11.00;99.90
27858;DHT22;16852;51.446;6.528;2023-03-14T03:10:11;11.00;99.90
27858;DHT22;16852;51.446;6.528;2023-03-14T03:12:12;11.00;99.90
27858;DHT22;16852;51.446;6.528;2023-03-14T03:14:12;11.10;99.90
27858;DHT22;16852;51.446;6.528;2023-03-14T03:16:13;11.00;99.90
27858;DHT22;16852;51.446;6.528;2023-03-14T03:18:15;11.00;99.90
27858;DHT22;16852;51.446;6.528;2023-03-14T03:20:16;11.00;99.90
27858;DHT22;16852;51.446;6.528;2023-03-14T03:22:16;11.00;99.90
27858;DHT22;16852;51.446;6.528;2023-03-14T03:24:17;11.00;99.90
27858;DHT22;16852;51.446;6.528;2023-03-14T03:26:17;11.10;99.90
27858;DHT22;16852;51.446;6.528;2023-03-14T03:28:19;11.00;99.90
27858;DHT22;16852;51.446;6.528;2023-03-14T03:30:19;11.00;99.90
27858;DHT22;16852;51.446;6.528;2023-03-14T03:32:20;11.00;99.90
27858;DHT22;16852;51.446;6.528;2023-03-14T03:34:21;11.00;99.90
27858;DHT22;16852;51.446;6.528;2023-03-14T03:36:23;11.10;99.90
27858;DHT22;16852;51.446;6.528;2023-03-14T03:38:24;11.10;99.90
27858;DHT22;16852;51.446;6.528;2023-03-14T03:40:24;11.00;99.90
27858;DHT22;16852;51.446;6.528;2023-03-14T03:42:26;11.10;99.90
27858;DHT22;16852;51.446;6.528;2023-03-14T03:44:27;11.10;99.90
27858;DHT22;16852;51.446;6.528;2023-03-14T03:46:27;11.10;99.90
27858;DHT22;16852;51.446;6.528;2023-03-14T03:48:28;11.00;99.90
27858;DHT22;16852;51.446;6.528;2023-03-14T03:50:28;11.10;99.90
27858;DHT22;16852;51.446;6.528;2023-03-14T03:52:29;11.10;99.90
27858;DHT22;16852;51.446;6.528;2023-03-14T03:54:29;11.10;99.90
27858;DHT22;16852;51.446;6.528;2023-03-14T03:56:30;11.10;99.90
27858;DHT22;16852;51.446;6.528;2023-03-14T03:58:31;11.10;99.90
27858;DHT22;16852;51.446;6.528;2023-03-14T04:00:32;11.10;99.90
27858;DHT22;16852;51.446;6.528;2023-03-14T04:02:33;11.00;99.90
27858;DHT22;16852;51.446;6.528;2023-03-14T04:04:34;11.10;99.90
27858;DHT22;16852;51.446;6.528;2023-03-14T04:06:34;11.00;99.90
27858;DHT22;16852;51.446;6.528;2023-03-14T04:08:35;11.00;99.90
27858;DHT22;16852;51.446;6.528;2023-03-14T04:10:36;11.00;99.90
27858;DHT22;16852;51.446;6.528;2023-03-14T04:12:36;11.00;99.90
27858;DHT22;16852;51.446;6.528;2023-03-14T04:14:37;11.00;99.90
27858;DHT22;16852;51.446;6.528;2023-03-14T04:16:38;11.00;99.90
27858;DHT22;16852;51.446;6.528;2023-03-14T04:18:38;11.00;99.90
27858;DHT22;16852;51.446;6.528;2023-03-14T04:20:39;10.90;99.90
27858;DHT22;16852;51.446;6.528;2023-03-14T04:22:39;10.90;99.90
27858;DHT22;16852;51.446;6.528;2023-03-14T04:24:40;10.90;99.90
27858;DHT22;16852;51.446;6.528;2023-03-14T04:26:40;10.90;99.90
27858;DHT22;16852;51.446;6.528;2023-03-14T04:28:41;10.90;99.90
27858;DHT22;16852;51.446;6.528;2023-03-14T04:30:42;10.90;99.90
27858;DHT22;16852;51.446;6.528;2023-03-14T04:32:43;10.90;99.90
27858;DHT22;16852;51.446;6.528;2023-03-14T04:34:43;10.80;99.90
27858;DHT22;16852;51.446;6.528;2023-03-14T04:36:44;10.70;99.90
27858;DHT22;16852;51.446;6.528;2023-03-14T04:38:44;10.70;99.90
27858;DHT22;16852;51.446;6.528;2023-03-14T04:40:45;10.70;99.90
27858;DHT22;16852;51.446;6.528;2023-03-14T04:42:46;10.70;99.90
27858;DHT22;16852;51.446;6.528;2023-03-14T04:44:46;10.60;99.90
27858;DHT22;16852;51.446;6.528;2023-03-14T04:46:49;10.60;99.90
27858;DHT22;16852;51.446;6.528;2023-03-14T04:48:50;10.60;99.90
27858;DHT22;16852;51.446;6.528;2023-03-14T04:50:50;10.60;99.90
27858;DHT22;16852;51.446;6.528;2023-03-14T04:52:51;10.50;99.90
27858;DHT22;16852;51.446;6.528;2023-03-14T04:54:52;10.50;99.90
27858;DHT22;16852;51.446;6.528;2023-03-14T04:56:52;10.40;99.90
27858;DHT22;16852;51.446;6.528;2023-03-14T04:58:53;10.40;99.90
27858;DHT22;16852;51.446;6.528;2023-03-14T05:00:53;10.40;99.90
27858;DHT22;16852;51.446;6.528;2023-03-14T05:02:54;10.40;99.90
27858;DHT22;16852;51.446;6.528;2023-03-14T05:04:55;10.40;99.90
27858;DHT22;16852;51.446;6.528;2023-03-14T05:06:55;10.40;99.90
27858;DHT22;16852;51.446;6.528;2023-03-14T05:08:56;10.40;99.90
27858;DHT22;16852;51.446;6.528;2023-03-14T05:10:57;10.30;99.90
27858;DHT22;16852;51.446;6.528;2023-03-14T05:12:58;10.30;99.90
27858;DHT22;16852;51.446;6.528;2023-03-14T05:14:59;10.30;99.90
27858;DHT22;16852;51.446;6.528;2023-03-14T05:16:59;10.30;99.90
27858;DHT22;16852;51.446;6.528;2023-03-14T05:19:00;10.30;99.90
27858;DHT22;16852;51.446;6.528;2023-03-14T05:21:02;10.30;99.90
27858;DHT22;16852;51.446;6.528;2023-03-14T05:23:02;10.20;99.90
27858;DHT22;16852;51.446;6.528;2023-03-14T05:25:03;10.20;99.90
27858;DHT22;16852;51.446;6.528;2023-03-14T05:27:04;10.20;99.90
27858;DHT22;16852;51.446;6.528;2023-03-14T05:29:04;10.20;99.90
27858;DHT22;16852;51.446;6.528;2023-03-14T05:31:07;10.20;99.90
27858;DHT22;16852;51.446;6.528;2023-03-14T05:33:08;10.30;99.90
27858;DHT22;16852;51.446;6.528;2023-03-14T05:35:08;10.20;99.90
27858;DHT22;16852;51.446;6.528;2023-03-14T05:37:09;10.20;99.90
27858;DHT22;16852;51.446;6.528;2023-03-14T05:39:09;10.20;99.90
27858;DHT22;16852;51.446;6.528;2023-03-14T05:41:10;10.30;99.90
27858;DHT22;16852;51.446;6.528;2023-03-14T05:43:10;10.20;99.90
27858;DHT22;16852;51.446;6.528;2023-03-14T05:45:11;10.20;99.90
27858;DHT22;16852;51.446;6.528;2023-03-14T05:47:12;10.20;99.90
27858;DHT22;16852;51.446;6.528;2023-03-14T05:49:12;10.30;99.90
27858;DHT22;16852;51.446;6.528;2023-03-14T05:51:13;10.30;99.90
27858;DHT22;16852;51.446;6.528;2023-03-14T05:53:14;10.30;99.90
27858;DHT22;16852;51.446;6.528;2023-03-14T05:55:14;10.20;99.90
27858;DHT22;16852;51.446;6.528;2023-03-14T05:57:15;10.30;99.90
27858;DHT22;16852;51.446;6.528;2023-03-14T05:59:15;10.30;99.90
27858;DHT22;16852;51.446;6.528;2023-03-14T06:01:16;10.30;99.90
27858;DHT22;16852;51.446;6.528;2023-03-14T06:03:16;10.20;99.90
27858;DHT22;16852;51.446;6.528;2023-03-14T06:05:17;10.20;99.90
27858;DHT22;16852;51.446;6.528;2023-03-14T06:07:18;10.20;99.90
27858;DHT22;16852;51.446;6.528;2023-03-14T06:09:18;10.20;99.90
27858;DHT22;16852;51.446;6.528;2023-03-14T06:11:20;10.30;99.90
27858;DHT22;16852;51.446;6.528;2023-03-14T06:13:21;10.30;99.90
27858;DHT22;16852;51.446;6.528;2023-03-14T06:15:21;10.30;99.90
27858;DHT22;16852;51.446;6.528;2023-03-14T06:17:22;10.30;99.90
27858;DHT22;16852;51.446;6.528;2023-03-14T06:19:22;10.30;99.90
27858;DHT22;16852;51.446;6.528;2023-03-14T06:21:24;10.30;99.90
27858;DHT22;16852;51.446;6.528;2023-03-14T06:23:25;10.30;99.90
27858;DHT22;16852;51.446;6.528;2023-03-14T06:25:26;10.30;99.90
27858;DHT22;16852;51.446;6.528;2023-03-14T06:27:26;10.30;99.90
27858;DHT22;16852;51.446;6.528;2023-03-14T06:29:27;10.40;99.90
27858;DHT22;16852;51.446;6.528;2023-03-14T06:31:28;10.40;99.90
27858;DHT22;16852;51.446;6.528;2023-03-14T06:33:28;10.40;99.90
27858;DHT22;16852;51.446;6.528;2023-03-14T06:35:29;10.40;99.90
27858;DHT22;16852;51.446;6.528;2023-03-14T06:37:30;10.40;99.90
27858;DHT22;16852;51.446;6.528;2023-03-14T06:39:30;10.50;99.90
27858;DHT22;16852;51.446;6.528;2023-03-14T06:41:31;10.40;99.90
27858;DHT22;16852;51.446;6.528;2023-03-14T06:43:33;10.40;99.90
27858;DHT22;16852;51.446;6.528;2023-03-14T06:45:33;10.40;99.90
27858;DHT22;16852;51.446;6.528;2023-03-14T06:47:34;10.40;99.90
27858;DHT22;16852;51.446;6.528;2023-03-14T06:49:35;10.40;99.90
27858;DHT22;16852;51.446;6.528;2023-03-14T06:51:35;10.50;99.90
27858;DHT22;16852;51.446;6.528;2023-03-14T06:53:36;10.50;99.90
27858;DHT22;16852;51.446;6.528;2023-03-14T06:55:36;10.50;99.90
27858;DHT22;16852;51.446;6.528;2023-03-14T06:57:37;10.50;99.90
27858;DHT22;16852;51.446;6.528;2023-03-14T06:59:37;10.60;99.90
27858;DHT22;16852;51.446;6.528;2023-03-14T07:01:38;10.50;99.90
27858;DHT22;16852;51.446;6.528;2023-03-14T07:03:39;10.60;99.90
27858;DHT22;16852;51.446;6.528;2023-03-14T07:05:39;10.50;99.90
27858;DHT22;16852;51.446;6.528;2023-03-14T07:07:42;10.50;99.90
27858;DHT22;16852;51.446;6.528;2023-03-14T07:09:42;10.60;99.90
27858;DHT22;16852;51.446;6.528;2023-03-14T07:11:43;10.60;99.90
27858;DHT22;16852;51.446;6.528;2023-03-14T07:13:44;10.60;99.90
27858;DHT22;16852;51.446;6.528;2023-03-14T07:15:44;10.60;99.90
27858;DHT22;16852;51.446;6.528;2023-03-14T07:17:46;10.60;99.90
27858;DHT22;16852;51.446;6.528;2023-03-14T07:19:48;10.60;99.90
27858;DHT22;16852;51.446;6.528;2023-03-14T07:21:48;10.70;99.90
27858;DHT22;16852;51.446;6.528;2023-03-14T07:23:49;10.60;99.90
27858;DHT22;16852;51.446;6.528;2023-03-14T07:25:49;10.60;99.90
27858;DHT22;16852;51.446;6.528;2023-03-14T07:27:51;10.60;99.90
27858;DHT22;16852;51.446;6.528;2023-03-14T07:29:51;10.70;99.90
27858;DHT22;16852;51.446;6.528;2023-03-14T07:31:52;10.70;99.90
27858;DHT22;16852;51.446;6.528;2023-03-14T07:33:53;10.60;99.90
27858;DHT22;16852;51.446;6.528;2023-03-14T07:35:53;10.60;99.90
27858;DHT22;16852;51.446;6.528;2023-03-14T07:37:54;10.60;99.90
27858;DHT22;16852;51.446;6.528;2023-03-14T07:39:54;10.60;99.90
27858;DHT22;16852;51.446;6.528;2023-03-14T07:41:55;10.60;99.90
27858;DHT22;16852;51.446;6.528;2023-03-14T07:43:55;10.60;99.90
27858;DHT22;16852;51.446;6.528;2023-03-14T07:45:56;10.70;99.90
27858;DHT22;16852;51.446;6.528;2023-03-14T07:47:57;10.70;99.90
27858;DHT22;16852;51.446;6.528;2023-03-14T07:49:57;10.70;99.90
27858;DHT22;16852;51.446;6.528;2023-03-14T07:51:58;10.70;99.90
27858;DHT22;16852;51.446;6.528;2023-03-14T07:53:59;10.80;99.90
27858;DHT22;16852;51.446;6.528;2023-03-14T07:56:00;10.70;99.90
27858;DHT22;16852;51.446;6.528;2023-03-14T07:58:01;10.80;99.90
27858;DHT22;16852;51.446;6.528;2023-03-14T08:00:02;10.90;99.90
27858;DHT22;16852;51.446;6.528;2023-03-14T08:02:05;10.90;99.90
27858;DHT22;16852;51.446;6.528;2023-03-14T08:04:11;10.90;99.90
27858;DHT22;16852;51.446;6.528;2023-03-14T08:06:11;10.90;99.90
27858;DHT22;16852;51.446;6.528;2023-03-14T08:08:12;10.90;99.90
27858;DHT22;16852;51.446;6.528;2023-03-14T08:10:13;10.90;99.90
27858;DHT22;16852;51.446;6.528;2023-03-14T08:12:21;11.00;99.90
27858;DHT22;16852;51.446;6.528;2023-03-14T08:14:21;11.00;99.90
27858;DHT22;16852;51.446;6.528;2023-03-14T08:16:24;11.10;99.90
27858;DHT22;16852;51.446;6.528;2023-03-14T08:18:24;11.00;99.90
27858;DHT22;16852;51.446;6.528;2023-03-14T08:20:27;11.10;99.90
27858;DHT22;16852;51.446;6.528;2023-03-14T08:22:28;11.10;99.90
27858;DHT22;16852;51.446;6.528;2023-03-14T08:24:29;11.10;99.90
27858;DHT22;16852;51.446;6.528;2023-03-14T08:26:29;11.20;99.90
27858;DHT22;16852;51.446;6.528;2023-03-14T08:28:30;11.20;99.90
27858;DHT22;16852;51.446;6.528;2023-03-14T08:30:33;11.20;99.90
27858;DHT22;16852;51.446;6.528;2023-03-14T08:32:33;11.20;99.90
27858;DHT22;16852;51.446;6.528;2023-03-14T08:34:34;11.20;99.90
27858;DHT22;16852;51.446;6.528;2023-03-14T08:36:35;11.20;99.90
27858;DHT22;16852;51.446;6.528;2023-03-14T08:38:35;11.20;99.90
27858;DHT22;16852;51.446;6.528;2023-03-14T08:40:36;11.20;99.90
27858;DHT22;16852;51.446;6.528;2023-03-14T08:42:38;11.20;99.90
27858;DHT22;16852;51.446;6.528;2023-03-14T08:44:38;11.20;99.90
27858;DHT22;16852;51.446;6.528;2023-03-14T08:46:39;11.20;99.90
27858;DHT22;16852;51.446;6.528;2023-03-14T08:48:40;11.20;99.90
27858;DHT22;16852;51.446;6.528;2023-03-14T08:50:40;11.20;99.90
27858;DHT22;16852;51.446;6.528;2023-03-14T08:52:41;11.20;99.90
27858;DHT22;16852;51.446;6.528;2023-03-14T08:54:43;10.90;99.90
27858;DHT22;16852;51.446;6.528;2023-03-14T08:56:43;10.60;99.90
27858;DHT22;16852;51.446;6.528;2023-03-14T08:58:44;10.30;99.90
27858;DHT22;16852;51.446;6.528;2023-03-14T09:00:45;10.20;99.90
27858;DHT22;16852;51.446;6.528;2023-03-14T09:02:45;10.00;99.90
27858;DHT22;16852;51.446;6.528;2023-03-14T09:04:46;9.80;99.90
27858;DHT22;16852;51.446;6.528;2023-03-14T09:06:46;9.80;99.90
27858;DHT22;16852;51.446;6.528;2023-03-14T09:08:47;9.70;99.90
27858;DHT22;16852;51.446;6.528;2023-03-14T09:10:47;9.70;99.90
27858;DHT22;16852;51.446;6.528;2023-03-14T09:12:48;9.70;99.90
27858;DHT22;16852;51.446;6.528;2023-03-14T09:14:49;9.50;99.90
27858;DHT22;16852;51.446;6.528;2023-03-14T09:16:49;9.50;99.90
27858;DHT22;16852;51.446;6.528;2023-03-14T09:18:51;9.40;99.90
27858;DHT22;16852;51.446;6.528;2023-03-14T09:20:55;9.30;99.90
27858;DHT22;16852;51.446;6.528;2023-03-14T09:22:56;9.30;99.90
27858;DHT22;16852;51.446;6.528;2023-03-14T09:24:56;9.20;99.90
27858;DHT22;16852;51.446;6.528;2023-03-14T09:26:58;9.20;99.90
27858;DHT22;16852;51.446;6.528;2023-03-14T09:28:58;9.20;99.90
27858;DHT22;16852;51.446;6.528;2023-03-14T09:31:09;9.30;99.90
27858;DHT22;16852;51.446;6.528;2023-03-14T09:33:10;9.20;99.90
27858;DHT22;16852;51.446;6.528;2023-03-14T09:35:11;9.20;99.90
27858;DHT22;16852;51.446;6.528;2023-03-14T09:37:11;9.20;99.90
27858;DHT22;16852;51.446;6.528;2023-03-14T09:39:12;9.20;99.90
27858;DHT22;16852;51.446;6.528;2023-03-14T09:41:16;9.20;99.90
27858;DHT22;16852;51.446;6.528;2023-03-14T09:43:17;9.10;99.90
27858;DHT22;16852;51.446;6.528;2023-03-14T09:45:29;9.10;99.90
27858;DHT22;16852;51.446;6.528;2023-03-14T09:47:33;9.10;99.90
27858;DHT22;16852;51.446;6.528;2023-03-14T09:49:36;9.00;99.90
27858;DHT22;16852;51.446;6.528;2023-03-14T09:51:37;9.10;99.90
27858;DHT22;16852;51.446;6.528;2023-03-14T09:53:44;9.00;99.90
27858;DHT22;16852;51.446;6.528;2023-03-14T09:55:47;9.10;99.90
27858;DHT22;16852;51.446;6.528;2023-03-14T09:57:51;9.10;99.90
27858;DHT22;16852;51.446;6.528;2023-03-14T09:59:59;9.10;99.90
27858;DHT22;16852;51.446;6.528;2023-03-14T10:02:01;9.10;99.90
27858;DHT22;16852;51.446;6.528;2023-03-14T10:04:10;9.10;99.90
27858;DHT22;16852;51.446;6.528;2023-03-14T10:06:14;9.20;99.90
27858;DHT22;16852;51.446;6.528;2023-03-14T10:08:15;9.10;99.90
27858;DHT22;16852;51.446;6.528;2023-03-14T10:10:21;9.10;99.90
27858;DHT22;16852;51.446;6.528;2023-03-14T10:12:36;9.20;99.90
27858;DHT22;16852;51.446;6.528;2023-03-14T10:14:44;9.10;99.90
27858;DHT22;16852;51.446;6.528;2023-03-14T10:16:45;9.20;99.90
27858;DHT22;16852;51.446;6.528;2023-03-14T10:18:46;9.20;99.90
27858;DHT22;16852;51.446;6.528;2023-03-14T10:20:49;9.10;99.90
27858;DHT22;16852;51.446;6.528;2023-03-14T10:22:50;8.90;99.90
27858;DHT22;16852;51.446;6.528;2023-03-14T10:24:55;8.70;99.90
27858;DHT22;16852;51.446;6.528;2023-03-14T10:27:01;8.60;99.90
27858;DHT22;16852;51.446;6.528;2023-03-14T10:29:12;8.60;99.90
27858;DHT22;16852;51.446;6.528;2023-03-14T10:31:14;8.50;99.90
27858;DHT22;16852;51.446;6.528;2023-03-14T10:35:21;8.50;99.90
27858;DHT22;16852;51.446;6.528;2023-03-14T10:37:24;8.50;99.90
27858;DHT22;16852;51.446;6.528;2023-03-14T10:39:30;8.50;99.90
27858;DHT22;16852;51.446;6.528;2023-03-14T10:41:33;8.50;99.90
27858;DHT22;16852;51.446;6.528;2023-03-14T10:43:35;8.40;99.90
27858;DHT22;16852;51.446;6.528;2023-03-14T10:45:41;8.50;99.90
27858;DHT22;16852;51.446;6.528;2023-03-14T10:47:50;8.40;99.90
27858;DHT22;16852;51.446;6.528;2023-03-14T10:49:51;8.40;99.90
27858;DHT22;16852;51.446;6.528;2023-03-14T10:51:52;8.30;99.90
27858;DHT22;16852;51.446;6.528;2023-03-14T10:53:58;8.30;99.90
27858;DHT22;16852;51.446;6.528;2023-03-14T10:56:02;8.30;99.90
27858;DHT22;16852;51.446;6.528;2023-03-14T10:58:08;8.20;99.90
27858;DHT22;16852;51.446;6.528;2023-03-14T11:00:22;8.10;99.90
27858;DHT22;16852;51.446;6.528;2023-03-14T11:02:57;8.20;99.90
27858;DHT22;16852;51.446;6.528;2023-03-14T11:07:24;8.30;99.90
27858;DHT22;16852;51.446;6.528;2023-03-14T11:11:45;8.20;99.90
27858;DHT22;16852;51.446;6.528;2023-03-14T11:14:08;8.30;99.90
27858;DHT22;16852;51.446;6.528;2023-03-14T11:23:24;8.30;99.90
27858;DHT22;16852;51.446;6.528;2023-03-14T11:27:52;8.30;99.90
27858;DHT22;16852;51.446;6.528;2023-03-14T11:30:18;8.30;99.90
27858;DHT22;16852;51.446;6.528;2023-03-14T11:34:51;8.40;99.90
27858;DHT22;16852;51.446;6.528;2023-03-14T11:37:17;8.40;99.90
27858;DHT22;16852;51.446;6.528;2023-03-14T11:39:21;8.50;99.90
27858;DHT22;16852;51.446;6.528;2023-03-14T11:41:27;8.50;99.90
27858;DHT22;16852;51.446;6.528;2023-03-14T11:43:38;8.60;99.90
27858;DHT22;16852;51.446;6.528;2023-03-14T11:45:43;8.70;99.90
27858;DHT22;16852;51.446;6.528;2023-03-14T11:47:48;8.70;99.90
27858;DHT22;16852;51.446;6.528;2023-03-14T11:50:07;8.80;99.90
27858;DHT22;16852;51.446;6.528;2023-03-14T11:56:34;8.90;99.90
27858;DHT22;16852;51.446;6.528;2023-03-14T11:58:38;9.00;99.90
27858;DHT22;16852;51.446;6.528;2023-03-14T12:00:43;9.00;99.90
27858;DHT22;16852;51.446;6.528;2023-03-14T12:03:02;8.90;99.90
27858;DHT22;16852;51.446;6.528;2023-03-14T12:09:51;8.90;99.90
27858;DHT22;16852;51.446;6.528;2023-03-14T12:12:02;9.00;99.90
27858;DHT22;16852;51.446;6.528;2023-03-14T12:14:35;9.00;99.90
27858;DHT22;16852;51.446;6.528;2023-03-14T12:16:38;9.00;99.90
27858;DHT22;16852;51.446;6.528;2023-03-14T12:18:39;8.90;99.90
27858;DHT22;16852;51.446;6.528;2023-03-14T12:20:51;8.80;99.90
27858;DHT22;16852;51.446;6.528;2023-03-14T12:23:02;8.40;99.90
27858;DHT22;16852;51.446;6.528;2023-03-14T12:25:13;8.30;99.90
27858;DHT22;16852;51.446;6.528;2023-03-14T12:27:42;8.10;99.90
27858;DHT22;16852;51.446;6.528;2023-03-14T12:30:01;7.90;99.90
27858;DHT22;16852;51.446;6.528;2023-03-14T12:32:24;7.90;99.90
27858;DHT22;16852;51.446;6.528;2023-03-14T12:39:07;8.00;99.90
27858;DHT22;16852;51.446;6.528;2023-03-14T12:43:31;8.10;99.90
27858;DHT22;16852;51.446;6.528;2023-03-14T12:45:33;8.10;99.90
27858;DHT22;16852;51.446;6.528;2023-03-14T12:49:38;8.20;99.90
27858;DHT22;16852;51.446;6.528;2023-03-14T12:51:41;8.10;99.90
27858;DHT22;16852;51.446;6.528;2023-03-14T12:58:30;8.30;99.90
27858;DHT22;16852;51.446;6.528;2023-03-14T13:00:39;8.30;99.90
27858;DHT22;16852;51.446;6.528;2023-03-14T13:02:42;8.40;99.90
27858;DHT22;16852;51.446;6.528;2023-03-14T13:07:04;8.40;99.90
27858;DHT22;16852;51.446;6.528;2023-03-14T13:11:33;8.40;99.90
27858;DHT22;16852;51.446;6.528;2023-03-14T13:13:36;8.50;99.90
27858;DHT22;16852;51.446;6.528;2023-03-14T13:15:45;8.40;99.90
27858;DHT22;16852;51.446;6.528;2023-03-14T13:17:47;8.40;99.90
27858;DHT22;16852;51.446;6.528;2023-03-14T13:19:55;8.50;99.90
27858;DHT22;16852;51.446;6.528;2023-03-14T13:22:02;8.50;99.90
27858;DHT22;16852;51.446;6.528;2023-03-14T13:24:25;8.50;99.90
27858;DHT22;16852;51.446;6.528;2023-03-14T13:26:36;8.50;99.90
27858;DHT22;16852;51.446;6.528;2023-03-14T13:28:37;8.50;99.90
27858;DHT22;16852;51.446;6.528;2023-03-14T13:30:43;8.50;99.90
27858;DHT22;16852;51.446;6.528;2023-03-14T13:32:46;8.50;99.90
27858;DHT22;16852;51.446;6.528;2023-03-14T13:34:48;8.50;99.90
27858;DHT22;16852;51.446;6.528;2023-03-14T13:36:52;8.50;99.90
27858;DHT22;16852;51.446;6.528;2023-03-14T13:38:58;8.60;99.90
27858;DHT22;16852;51.446;6.528;2023-03-14T13:41:00;8.70;99.90
27858;DHT22;16852;51.446;6.528;2023-03-14T13:43:04;8.70;99.90
27858;DHT22;16852;51.446;6.528;2023-03-14T13:45:05;8.80;99.90
27858;DHT22;16852;51.446;6.528;2023-03-14T13:47:14;8.80;99.90
27858;DHT22;16852;51.446;6.528;2023-03-14T13:49:33;8.90;99.90
27858;DHT22;16852;51.446;6.528;2023-03-14T13:51:39;9.00;99.90